Time;durP1;ratioP1;P1;durP2;ratioP2;P2;SDS_P1;SDS_P2;PMS_P1;PMS_P2;Temp;Humidity;BMP_temperature;BMP_pressure;BME280_temperature;BME280_humidity;BME280_pressure;Samples;Min_cycle;Max_cycle;Signal;HPM_P1;HPM_P2
2022/09/06 00:01:33;;;;;;;5.90;3.90;;;;;;;14.24;84.91;98002.97;110378;1247;69850;-67
2022/09/06 00:04:04;;;;;;;4.10;3.30;;;;;;;14.23;85.47;98004.93;110113;1247;69454;-69
2022/09/06 00:06:34;;;;;;;3.80;3.30;;;;;;;14.23;85.25;98005.47;110133;1247;69406;-67
2022/09/06 00:09:05;;;;;;;6.00;3.70;;;;;;;14.22;85.60;98006.05;110002;1247;59813;-67
2022/09/06 00:11:35;;;;;;;4.00;3.60;;;;;;;14.22;86.22;98003.30;110033;1247;59690;-66
2022/09/06 00:14:06;;;;;;;4.40;3.60;;;;;;;14.21;85.81;98002.27;110081;1248;70068;-68
2022/09/06 00:16:39;;;;;;;4.70;3.30;;;;;;;14.21;85.43;98002.83;110083;1247;67608;-67
2022/09/06 00:19:09;;;;;;;3.80;3.10;;;;;;;14.20;84.73;98003.95;110096;1247;68675;-67
2022/09/06 00:21:39;;;;;;;4.50;3.40;;;;;;;14.19;84.11;98005.45;110066;1247;59691;-67
2022/09/06 00:24:08;;;;;;;;;;;;;;;14.17;84.71;98001.02;109773;1248;59691;-67
2022/09/06 00:26:38;;;;;;;4.90;3.00;;;;;;;14.15;84.97;97999.30;110064;1247;71366;-66
2022/09/06 00:29:08;;;;;;;4.10;3.00;;;;;;;14.14;83.03;97996.03;108528;1248;1952726;-69
2022/09/06 00:31:37;;;;;;;;;;;;;;;14.14;82.14;97996.06;110046;1247;69400;-66
2022/09/06 00:34:07;;;;;;;;;;;;;;;14.11;82.27;97994.54;110091;1247;59764;-67
2022/09/06 00:36:37;;;;;;;4.20;3.60;;;;;;;14.08;81.65;97989.32;110145;1247;59764;-69
2022/09/06 00:39:10;;;;;;;4.20;3.70;;;;;;;14.05;85.95;97985.71;110088;1247;71473;-68
2022/09/06 00:41:41;;;;;;;4.40;3.30;;;;;;;14.02;85.43;97987.53;110047;1248;68660;-67
2022/09/06 00:44:12;;;;;;;6.00;4.50;;;;;;;13.98;87.00;97987.84;109686;1249;68918;-67
2022/09/06 00:46:45;;;;;;;4.80;3.60;;;;;;;13.95;86.91;97987.52;110009;1247;59699;-68
2022/09/06 00:49:23;;;;;;;4.40;3.70;;;;;;;13.93;86.01;97984.52;109852;1250;59709;-68
2022/09/06 00:51:58;;;;;;;4.40;3.60;;;;;;;13.91;87.21;97985.73;110107;1247;71554;-67
2022/09/06 00:54:29;;;;;;;4.80;4.10;;;;;;;13.88;87.00;97984.05;109730;1250;69393;-69
2022/09/06 00:57:00;;;;;;;3.50;3.10;;;;;;;13.84;86.82;97986.10;110083;1247;69410;-68
2022/09/06 00:59:33;;;;;;;3.90;3.50;;;;;;;13.80;86.09;97991.31;109814;1251;59708;-68
2022/09/06 01:02:04;;;;;;;4.40;3.70;;;;;;;13.73;85.01;97995.86;110072;1247;59717;-68
2022/09/06 01:04:37;;;;;;;5.90;3.80;;;;;;;13.66;84.22;97996.94;110076;1247;70788;-68
2022/09/06 01:07:26;;;;;;;5.80;4.50;;;;;;;13.57;84.74;97993.98;110054;1247;69523;-66
2022/09/06 01:10:31;;;;;;;5.60;4.30;;;;;;;13.45;83.23;97990.48;110125;1247;68650;-69
2022/09/06 01:13:27;;;;;;;4.60;3.90;;;;;;;13.32;83.67;97988.98;109962;1247;59711;-67
2022/09/06 01:16:25;;;;;;;4.90;3.90;;;;;;;13.23;85.02;97988.10;110002;1248;59731;-67
2022/09/06 01:19:26;;;;;;;5.00;3.40;;;;;;;13.14;84.48;97983.15;109664;1249;71518;-67
2022/09/06 01:22:21;;;;;;;4.10;3.70;;;;;;;13.06;86.07;97984.25;110058;1247;69650;-67
2022/09/06 01:24:59;;;;;;;4.30;3.40;;;;;;;12.99;84.83;97981.39;110067;1246;68710;-68
2022/09/06 01:27:43;;;;;;;;;;;;;;;12.91;85.02;97984.46;110077;1247;59718;-69
2022/09/06 01:30:18;;;;;;;5.10;3.80;;;;;;;12.81;85.37;97985.05;110174;1247;59660;-68
2022/09/06 01:33:23;;;;;;;5.70;4.60;;;;;;;12.73;84.37;97986.14;110193;1247;70819;-67
2022/09/06 01:36:01;;;;;;;4.50;4.10;;;;;;;12.66;86.79;97985.25;110054;1247;68825;-67
2022/09/06 01:38:32;;;;;;;4.40;3.60;;;;;;;12.60;88.35;97984.99;110046;1247;68646;-68
2022/09/06 01:41:02;;;;;;;5.50;5.00;;;;;;;12.53;88.44;97982.02;110119;1247;59715;-68
2022/09/06 01:43:42;;;;;;;6.00;5.00;;;;;;;12.42;86.78;97980.30;110014;1248;59687;-68
2022/09/06 01:46:28;;;;;;;5.70;4.90;;;;;;;12.35;86.98;97979.10;110062;1247;71511;-68
2022/09/06 01:49:13;;;;;;;6.10;4.90;;;;;;;12.30;86.83;97974.03;110099;1247;68702;-68
2022/09/06 01:52:05;;;;;;;5.50;4.60;;;;;;;12.28;86.37;97973.12;110043;1247;68605;-68
2022/09/06 01:54:50;;;;;;;5.00;4.40;;;;;;;12.25;85.25;97970.34;110023;1247;59677;-67
2022/09/06 01:57:42;;;;;;;8.10;6.10;;;;;;;12.21;85.35;97969.04;110024;1247;59698;-67
2022/09/06 02:00:16;;;;;;;7.80;6.50;;;;;;;12.13;86.44;97966.46;109990;1247;72286;-66
2022/09/06 02:03:07;;;;;;;8.10;6.90;;;;;;;12.05;87.02;97967.05;110190;1247;68628;-68
2022/09/06 02:05:48;;;;;;;7.30;6.60;;;;;;;11.97;87.20;97963.77;109877;1250;69252;-67
2022/09/06 02:08:34;;;;;;;9.80;6.00;;;;;;;11.89;90.04;97963.98;109993;1247;59682;-69
2022/09/06 02:11:07;;;;;;;4.90;3.90;;;;;;;11.81;90.22;97963.98;110104;1247;59688;-68
2022/09/06 02:13:47;;;;;;;5.60;5.10;;;;;;;11.75;87.70;97961.57;110074;1247;70794;-68
2022/09/06 02:16:21;;;;;;;5.30;4.70;;;;;;;11.70;87.63;97956.33;110083;1247;69372;-67
2022/09/06 02:19:22;;;;;;;4.30;3.80;;;;;;;11.66;89.26;97955.02;110063;1247;69430;-69
2022/09/06 02:21:56;;;;;;;6.20;4.40;;;;;;;11.61;89.34;97957.80;109662;1248;59702;-67
2022/09/06 02:24:30;;;;;;;5.30;4.80;;;;;;;11.55;90.08;97960.00;110206;1247;59688;-68
2022/09/06 02:26:59;;;;;;;4.60;4.20;;;;;;;11.48;89.05;97960.61;110056;1248;71360;-69
2022/09/06 02:29:34;;;;;;;7.50;6.80;;;;;;;11.42;89.20;97961.69;110141;1247;68522;-69
2022/09/06 02:32:09;;;;;;;5.30;4.80;;;;;;;11.36;91.34;97964.42;110183;1247;68978;-68
2022/09/06 02:34:40;;;;;;;5.50;4.90;;;;;;;11.28;90.28;97969.12;110232;1247;59735;-67
2022/09/06 02:37:11;;;;;;;7.30;5.80;;;;;;;11.22;89.57;97973.52;110213;1247;59698;-69
2022/09/06 02:39:42;;;;;;;8.70;7.60;;;;;;;11.17;89.96;97979.41;109959;1247;71488;-68
2022/09/06 02:42:14;;;;;;;9.60;8.00;;;;;;;11.12;91.18;97980.27;110239;1247;70048;-67
2022/09/06 02:44:44;;;;;;;10.90;8.60;;;;;;;11.08;92.53;97982.12;110216;1247;69483;-67
2022/09/06 02:47:14;;;;;;;9.00;8.10;;;;;;;11.04;93.49;97980.98;110420;1247;59675;-69
2022/09/06 02:49:44;;;;;;;11.60;9.10;;;;;;;11.02;93.88;97981.45;110169;1247;59617;-68
2022/09/06 02:52:14;;;;;;;11.80;9.10;;;;;;;11.00;94.08;97983.88;110131;1247;70590;-68
2022/09/06 02:54:44;;;;;;;10.10;9.00;;;;;;;10.98;94.80;97981.94;110165;1247;69719;-68
2022/09/06 02:57:14;;;;;;;15.20;10.70;;;;;;;10.95;93.44;97984.72;110107;1247;69406;-70
2022/09/06 02:59:45;;;;;;;12.30;10.10;;;;;;;10.92;94.81;97986.16;110073;1247;59761;-69
2022/09/06 03:02:16;;;;;;;12.00;10.50;;;;;;;10.87;95.70;97981.59;110205;1247;59673;-67
2022/09/06 03:04:46;;;;;;;10.20;9.20;;;;;;;10.86;95.07;97979.55;110167;1247;70787;-68
2022/09/06 03:07:15;;;;;;;8.80;7.90;;;;;;;10.87;95.14;97982.83;110123;1247;69299;-68
2022/09/06 03:09:45;;;;;;;10.30;8.90;;;;;;;10.87;96.19;97984.36;110250;1247;69334;-68
2022/09/06 03:12:14;;;;;;;9.00;8.10;;;;;;;10.85;95.36;97983.83;110205;1247;59694;-67
2022/09/06 03:14:45;;;;;;;9.10;7.20;;;;;;;10.83;94.30;97982.58;110188;1247;59610;-68
2022/09/06 03:17:14;;;;;;;7.40;6.20;;;;;;;10.80;93.41;97982.71;110162;1247;70918;-70
2022/09/06 03:19:45;;;;;;;6.10;5.50;;;;;;;10.78;91.86;97982.34;110093;1247;68431;-68
2022/09/06 03:22:15;;;;;;;9.90;7.70;;;;;;;10.75;91.52;97984.14;110045;1249;68650;-67
2022/09/06 03:24:44;;;;;;;9.80;8.50;;;;;;;10.70;92.45;97988.77;110288;1247;59744;-67
2022/09/06 03:27:14;;;;;;;8.30;7.30;;;;;;;10.66;92.61;97989.70;110179;1247;59681;-68
2022/09/06 03:29:47;;;;;;;8.10;6.70;;;;;;;10.63;92.01;97988.20;110298;1247;70775;-69
2022/09/06 03:32:16;;;;;;;9.60;8.00;;;;;;;10.59;92.42;97989.14;110382;1247;69418;-68
2022/09/06 03:34:45;;;;;;;7.40;6.60;;;;;;;10.55;94.47;97990.29;110218;1247;69370;-68
2022/09/06 03:37:15;;;;;;;8.70;6.40;;;;;;;10.52;95.98;97994.12;110130;1247;59676;-68
2022/09/06 03:39:45;;;;;;;6.30;5.30;;;;;;;10.51;93.98;97993.48;110290;1247;59676;-69
2022/09/06 03:42:15;;;;;;;8.10;6.90;;;;;;;10.53;92.77;97993.89;110131;1247;71533;-68
2022/09/06 03:44:45;;;;;;;8.80;6.70;;;;;;;10.55;92.85;97994.95;110207;1247;68624;-67
2022/09/06 03:47:15;;;;;;;8.60;6.70;;;;;;;10.60;92.84;98000.09;109956;1250;68701;-67
2022/09/06 03:49:47;;;;;;;8.40;7.50;;;;;;;10.64;95.35;98004.53;110188;1247;59791;-68
2022/09/06 03:52:17;;;;;;;6.50;5.90;;;;;;;10.67;95.81;98002.39;110237;1247;59786;-68
2022/09/06 03:54:47;;;;;;;7.40;6.60;;;;;;;10.69;93.92;97998.06;109835;1247;70713;-68
2022/09/06 03:57:16;;;;;;;7.70;6.50;;;;;;;10.73;95.04;98002.05;109957;1248;68649;-68
2022/09/06 03:59:46;;;;;;;7.30;6.00;;;;;;;10.77;96.24;98004.90;109959;1247;68696;-68
2022/09/06 04:02:15;;;;;;;8.60;6.50;;;;;;;10.80;96.44;98004.36;110324;1247;59693;-68
2022/09/06 04:04:45;;;;;;;7.30;6.10;;;;;;;10.84;96.52;98002.70;110100;1247;59709;-69
2022/09/06 04:07:14;;;;;;;7.50;6.70;;;;;;;10.88;96.00;98001.92;110045;1247;70948;-68
2022/09/06 04:09:43;;;;;;;8.70;6.90;;;;;;;10.92;96.96;98002.15;110214;1247;68702;-69
2022/09/06 04:12:12;;;;;;;8.20;6.60;;;;;;;10.98;96.84;98003.05;110223;1247;68282;-68
2022/09/06 04:14:41;;;;;;;8.40;6.90;;;;;;;11.03;97.20;98005.33;110310;1247;59748;-68
2022/09/06 04:17:11;;;;;;;7.30;6.50;;;;;;;11.08;96.84;98006.03;110198;1247;60103;-69
2022/09/06 04:19:40;;;;;;;6.90;6.00;;;;;;;11.13;96.03;98008.85;110126;1247;71756;-68
2022/09/06 04:22:09;;;;;;;7.00;5.60;;;;;;;11.17;95.24;98008.40;110165;1247;69368;-68
2022/09/06 04:24:38;;;;;;;6.20;5.50;;;;;;;11.21;95.30;98011.79;110136;1247;69449;-68
2022/09/06 04:27:07;;;;;;;7.60;6.90;;;;;;;11.24;95.45;98010.09;110149;1247;59752;-68
2022/09/06 04:29:36;;;;;;;7.70;6.30;;;;;;;11.25;95.25;98011.04;110246;1247;59686;-67
2022/09/06 04:32:06;;;;;;;7.80;5.60;;;;;;;11.29;95.62;98009.20;110274;1247;70514;-66
2022/09/06 04:34:35;;;;;;;6.30;5.70;;;;;;;11.35;95.08;98008.11;110267;1247;69343;-68
2022/09/06 04:37:05;;;;;;;6.20;5.60;;;;;;;11.45;94.87;98007.92;110141;1247;69920;-69
2022/09/06 04:39:35;;;;;;;6.70;6.00;;;;;;;11.62;94.52;98004.88;110084;1247;59670;-69
2022/09/06 04:42:04;;;;;;;7.60;5.90;;;;;;;11.82;94.06;98007.58;110105;1247;59630;-67
2022/09/06 04:44:34;;;;;;;7.80;6.20;;;;;;;12.05;93.45;98008.59;110165;1247;71389;-67
2022/09/06 04:47:08;;;;;;;5.30;4.80;;;;;;;12.31;92.87;98011.52;110213;1247;68723;-68
2022/09/06 04:49:38;;;;;;;4.60;4.00;;;;;;;12.62;92.33;98010.18;110104;1247;69854;-68
2022/09/06 04:52:07;;;;;;;4.40;4.00;;;;;;;12.93;90.60;98011.31;110301;1247;59700;-67
2022/09/06 04:54:37;;;;;;;6.80;4.50;;;;;;;13.16;88.19;98011.13;110117;1247;59684;-69
2022/09/06 04:57:06;;;;;;;4.50;3.60;;;;;;;13.42;86.57;98008.39;110152;1247;70793;-70
2022/09/06 04:59:36;;;;;;;5.50;4.70;;;;;;;13.72;86.60;98012.62;110253;1247;69097;-69
2022/09/06 05:02:05;;;;;;;4.80;4.30;;;;;;;13.93;84.51;98006.80;110063;1247;68784;-69
2022/09/06 05:04:35;;;;;;;4.80;3.80;;;;;;;14.15;84.03;98005.06;110264;1247;59685;-66
2022/09/06 05:07:07;;;;;;;5.00;4.50;;;;;;;14.35;82.78;98006.86;110247;1247;59653;-68
2022/09/06 05:09:36;;;;;;;6.00;5.40;;;;;;;14.59;82.35;98005.66;110238;1247;70724;-68
2022/09/06 05:12:06;;;;;;;5.20;4.60;;;;;;;14.79;81.32;98009.53;110266;1247;69199;-68
2022/09/06 05:14:35;;;;;;;7.70;5.50;;;;;;;14.95;80.64;98012.41;110441;1247;69434;-68
2022/09/06 05:17:05;;;;;;;6.30;5.50;;;;;;;15.12;80.22;98009.30;110185;1247;59735;-70
2022/09/06 05:19:35;;;;;;;4.90;4.40;;;;;;;15.28;79.73;98009.23;110135;1247;60040;-69
2022/09/06 05:22:04;;;;;;;5.00;4.30;;;;;;;15.58;81.38;98011.49;110193;1247;71393;-67
2022/09/06 05:24:33;;;;;;;4.80;4.30;;;;;;;15.89;79.74;98013.98;110130;1247;68420;-69
2022/09/06 05:27:03;;;;;;;4.30;3.90;;;;;;;16.17;77.84;98012.64;110152;1247;68672;-68
2022/09/06 05:29:33;;;;;;;4.70;4.10;;;;;;;16.44;77.26;98012.01;110250;1247;59679;-68
2022/09/06 05:32:02;;;;;;;4.80;3.80;;;;;;;16.63;73.72;98010.73;110099;1247;59589;-67
2022/09/06 05:34:31;;;;;;;6.10;5.20;;;;;;;16.85;73.45;98013.42;110131;1247;71002;-69
2022/09/06 05:37:00;;;;;;;5.90;4.40;;;;;;;17.03;72.43;98015.05;110138;1247;68671;-68
2022/09/06 05:39:30;;;;;;;5.00;4.00;;;;;;;17.15;69.29;98014.52;110101;1247;68665;-67
2022/09/06 05:42:05;;;;;;;4.90;4.00;;;;;;;17.34;68.38;98014.90;110121;1247;59706;-68
2022/09/06 05:44:35;;;;;;;6.70;4.30;;;;;;;17.63;70.12;98014.79;110180;1247;59757;-69
2022/09/06 05:47:05;;;;;;;5.70;5.10;;;;;;;17.79;68.32;98017.73;110199;1246;71572;-68
2022/09/06 05:49:34;;;;;;;;;;;;;;;18.10;71.72;98017.98;110195;1247;69327;-69
2022/09/06 05:52:03;;;;;;;9.00;8.10;;;;;;;18.21;68.37;98018.55;110141;1247;68641;-67
2022/09/06 05:54:33;;;;;;;11.40;10.40;;;;;;;18.47;68.73;98015.77;110128;1247;59720;-68
2022/09/06 05:57:02;;;;;;;6.70;5.60;;;;;;;18.64;66.63;98013.44;110056;1247;59753;-68
2022/09/06 05:59:31;;;;;;;8.90;7.70;;;;;;;18.99;68.19;98010.91;110086;1247;71558;-69
2022/09/06 06:02:01;;;;;;;7.00;6.30;;;;;;;19.08;65.42;98012.09;110070;1247;68898;-68
2022/09/06 06:04:35;;;;;;;9.60;8.80;;;;;;;18.97;64.69;98012.14;110225;1247;68579;-68
2022/09/06 06:07:04;;;;;;;5.20;4.30;;;;;;;18.71;62.90;98014.67;110120;1247;59830;-67
2022/09/06 06:09:33;;;;;;;6.70;6.00;;;;;;;18.43;62.85;98017.21;110200;1247;59608;-67
2022/09/06 06:12:03;;;;;;;6.50;5.90;;;;;;;18.46;62.70;98014.77;110157;1247;71370;-69
2022/09/06 06:14:32;;;;;;;5.30;4.10;;;;;;;18.63;62.59;98012.40;110196;1247;69349;-68
2022/09/06 06:17:03;;;;;;;4.40;3.40;;;;;;;18.89;61.43;98013.80;110344;1247;68606;-68
2022/09/06 06:19:32;;;;;;;;;;;;;;;19.26;60.75;98013.25;110190;1247;59705;-69
2022/09/06 06:22:01;;;;;;;4.60;4.20;;;;;;;19.51;59.05;98012.82;110129;1247;59735;-69
2022/09/06 06:24:30;;;;;;;;;;;;;;;19.80;59.84;98008.86;110183;1247;71640;-69
2022/09/06 06:27:00;;;;;;;6.60;5.90;;;;;;;20.10;58.91;98008.65;110363;1246;68645;-70
2022/09/06 06:29:30;;;;;;;5.50;4.80;;;;;;;20.51;59.33;98007.91;110212;1247;68637;-70
2022/09/06 06:31:59;;;;;;;7.60;5.20;;;;;;;20.34;54.78;98006.36;110372;1247;59776;-69
2022/09/06 06:34:28;;;;;;;4.30;3.90;;;;;;;20.81;55.46;98006.73;110278;1247;59650;-68
2022/09/06 06:36:57;;;;;;;4.30;3.80;;;;;;;20.54;53.72;98002.70;110161;1247;70427;-68
2022/09/06 06:39:26;;;;;;;5.80;4.30;;;;;;;20.74;54.26;97996.21;110145;1247;69274;-71
2022/09/06 06:41:56;;;;;;;5.20;4.40;;;;;;;21.19;56.66;98000.08;110156;1247;69417;-68
2022/09/06 06:44:27;;;;;;;6.70;5.60;;;;;;;21.60;55.10;98002.64;110234;1247;59687;-69
2022/09/06 06:46:57;;;;;;;5.30;4.80;;;;;;;21.67;52.77;97997.09;110078;1247;59664;-70
2022/09/06 06:49:27;;;;;;;4.70;4.00;;;;;;;21.31;52.01;97998.42;110288;1247;72752;-69
2022/09/06 06:51:56;;;;;;;3.70;3.20;;;;;;;21.31;52.74;98005.16;110133;1247;69374;-69
2022/09/06 06:54:25;;;;;;;6.60;3.90;;;;;;;21.61;54.12;98001.26;110120;1247;69250;-69
2022/09/06 06:56:54;;;;;;;3.40;3.10;;;;;;;21.93;51.29;98001.52;110176;1247;59758;-68
2022/09/06 06:59:23;;;;;;;4.60;3.90;;;;;;;21.79;50.33;98000.67;110126;1247;59695;-68
2022/09/06 07:01:52;;;;;;;3.90;3.50;;;;;;;21.56;51.00;98002.52;110170;1247;70756;-70
2022/09/06 07:04:22;;;;;;;4.00;2.90;;;;;;;21.25;51.32;98002.81;110078;1247;69487;-69
2022/09/06 07:06:55;;;;;;;5.80;3.80;;;;;;;21.22;51.82;98000.69;110142;1247;67499;-69
2022/09/06 07:09:44;;;;;;;4.60;3.20;;;;;;;21.31;52.25;97996.27;110394;1247;60158;-70
2022/09/06 07:12:34;;;;;;;4.40;3.30;;;;;;;21.66;51.24;97997.32;110184;1247;59701;-69
2022/09/06 07:15:04;;;;;;;;;;;;;;;21.72;51.26;97996.70;110312;1247;71481;-70
2022/09/06 07:17:34;;;;;;;4.80;3.50;;;;;;;21.98;49.91;97999.32;110232;1247;68696;-71
2022/09/06 07:20:03;;;;;;;4.10;3.40;;;;;;;22.27;49.58;97993.32;110212;1247;69461;-70
2022/09/06 07:22:40;;;;;;;5.60;3.70;;;;;;;22.00;49.12;97994.09;110182;1247;59735;-70
2022/09/06 07:25:12;;;;;;;3.50;3.10;;;;;;;22.48;48.94;97993.80;110179;1247;59705;-70
2022/09/06 07:27:48;;;;;;;5.30;4.80;;;;;;;22.86;48.53;97993.05;110160;1247;71401;-70
2022/09/06 07:30:18;;;;;;;3.70;3.20;;;;;;;23.24;48.58;97992.05;110119;1247;68635;-71
2022/09/06 07:32:48;;;;;;;4.60;3.10;;;;;;;23.58;47.21;97990.92;110297;1247;68448;-71
2022/09/06 07:35:20;;;;;;;8.20;7.40;;;;;;;23.43;47.20;97984.71;110364;1247;59676;-71
2022/09/06 07:37:58;;;;;;;7.20;5.90;;;;;;;23.72;46.81;97989.06;110195;1247;59622;-69
2022/09/06 07:40:30;;;;;;;3.20;2.90;;;;;;;23.91;46.12;97990.59;110241;1247;70406;-72
2022/09/06 07:42:59;;;;;;;4.00;3.40;;;;;;;24.05;45.65;97991.11;110242;1247;69466;-71
2022/09/06 07:45:30;;;;;;;3.40;2.80;;;;;;;23.80;45.39;97989.83;109806;1249;68358;-71
2022/09/06 07:48:01;;;;;;;4.50;3.10;;;;;;;24.22;46.20;97992.60;110105;1247;59701;-70
2022/09/06 07:50:34;;;;;;;3.20;2.60;;;;;;;24.45;46.17;97993.60;110162;1247;59693;-71
2022/09/06 07:53:22;;;;;;;4.20;2.90;;;;;;;24.36;44.56;97995.16;110133;1247;70618;-71
2022/09/06 07:56:00;;;;;;;6.80;5.20;;;;;;;24.09;44.75;97994.30;110138;1247;68731;-69
2022/09/06 07:58:30;;;;;;;3.70;3.00;;;;;;;24.38;44.91;97989.77;110177;1247;68542;-71
2022/09/06 08:01:29;;;;;;;4.00;3.20;;;;;;;24.90;45.24;97991.65;110141;1247;59780;-71
2022/09/06 08:04:07;;;;;;;4.60;2.80;;;;;;;24.92;43.38;97992.16;110397;1247;59688;-71
2022/09/06 08:06:39;;;;;;;3.40;3.00;;;;;;;24.52;44.45;97990.38;110236;1247;71899;-71
2022/09/06 08:09:28;;;;;;;6.60;5.60;;;;;;;25.08;44.16;97990.05;110166;1247;68864;-75
2022/09/06 08:11:58;;;;;;;4.70;3.30;;;;;;;25.35;43.10;98001.00;110130;1247;69455;-75
2022/09/06 08:14:27;;;;;;;3.80;3.40;;;;;;;25.18;43.47;97998.84;110080;1247;59715;-73
2022/09/06 08:16:56;;;;;;;;;;;;;;;25.35;43.47;97997.36;110282;1247;59689;-75
2022/09/06 08:19:25;;;;;;;3.50;2.90;;;;;;;25.84;42.47;97995.98;110278;1247;71832;-75
2022/09/06 08:21:54;;;;;;;3.30;2.80;;;;;;;26.15;41.85;97994.21;110099;1247;68442;-73
2022/09/06 08:24:24;;;;;;;3.30;2.90;;;;;;;26.36;42.27;97995.23;110074;1247;68608;-76
2022/09/06 08:26:53;;;;;;;3.30;2.90;;;;;;;26.65;41.20;97988.29;110331;1247;59713;-75
2022/09/06 08:29:22;;;;;;;3.50;2.90;;;;;;;26.48;41.05;97986.59;110141;1247;59706;-74
2022/09/06 08:31:51;;;;;;;3.80;3.00;;;;;;;26.54;40.52;97984.23;110297;1247;70618;-74
2022/09/06 08:34:20;;;;;;;;;;;;;;;26.26;41.13;97986.95;110106;1247;69508;-73
2022/09/06 08:36:49;;;;;;;3.80;3.10;;;;;;;26.51;41.34;97983.48;109991;1247;68571;-75
2022/09/06 08:39:18;;;;;;;;;;;;;;;26.83;40.70;97975.08;109913;1247;59711;-73
2022/09/06 08:41:52;;;;;;;4.00;3.00;;;;;;;27.26;39.94;97975.20;110117;1247;59769;-75
2022/09/06 08:44:23;;;;;;;5.40;3.60;;;;;;;27.50;39.90;97965.98;110221;1247;70984;-75
2022/09/06 08:47:14;;;;;;;3.60;3.00;;;;;;;27.83;38.87;97966.96;110034;1247;68672;-74
2022/09/06 08:49:53;;;;;;;3.60;2.50;;;;;;;27.41;39.58;97964.54;110207;1247;69430;-75
2022/09/06 08:52:45;;;;;;;3.90;2.80;;;;;;;27.50;39.46;97960.58;110201;1247;59695;-75
2022/09/06 08:55:38;;;;;;;8.10;3.50;;;;;;;27.23;39.60;97959.32;110197;1247;59737;-75
2022/09/06 08:58:28;;;;;;;4.70;3.00;;;;;;;27.43;38.93;97955.98;110306;1247;71578;-72
2022/09/06 09:01:03;;;;;;;3.70;2.90;;;;;;;27.28;39.61;97952.34;110329;1247;68653;-75
2022/09/06 09:03:38;;;;;;;2.90;2.50;;;;;;;27.38;38.84;97952.52;110242;1247;68460;-72
2022/09/06 09:06:09;;;;;;;3.20;2.80;;;;;;;27.98;38.57;97951.31;110072;1248;59739;-73
2022/09/06 09:08:57;;;;;;;4.40;3.20;;;;;;;28.81;37.60;97950.73;110119;1246;59674;-75
2022/09/06 09:11:28;;;;;;;3.50;2.80;;;;;;;28.09;36.98;97954.81;110340;1246;71588;-75
2022/09/06 09:13:58;;;;;;;3.00;2.70;;;;;;;27.82;39.24;97955.00;110284;1247;69376;-74
2022/09/06 09:16:27;;;;;;;4.20;3.10;;;;;;;28.13;38.54;97955.83;110341;1247;69056;-74
2022/09/06 09:19:03;;;;;;;2.70;2.40;;;;;;;28.00;38.04;97950.40;110119;1247;59609;-73
2022/09/06 09:21:39;;;;;;;4.20;2.50;;;;;;;27.76;38.23;97946.16;109860;1248;59679;-72
2022/09/06 09:24:10;;;;;;;3.20;2.30;;;;;;;27.85;39.22;97944.22;110059;1247;70514;-74
2022/09/06 09:26:45;;;;;;;2.90;2.50;;;;;;;28.15;38.57;97944.45;110145;1247;69392;-73
2022/09/06 09:29:16;;;;;;;4.00;2.70;;;;;;;28.30;38.59;97942.23;110126;1247;69245;-73
2022/09/06 09:31:48;;;;;;;2.60;2.40;;;;;;;27.58;37.73;97942.37;110274;1247;59679;-73
2022/09/06 09:34:51;;;;;;;3.00;2.20;;;;;;;28.09;38.33;97940.75;110111;1247;59699;-74
2022/09/06 09:37:25;;;;;;;3.80;2.20;;;;;;;28.95;36.93;97933.54;109846;1248;71009;-74
2022/09/06 09:40:16;;;;;;;5.40;2.90;;;;;;;29.11;35.97;97931.48;110087;1247;68632;-73
2022/09/06 09:42:45;;;;;;;3.00;2.70;;;;;;;29.29;35.77;97929.74;110178;1247;69452;-74
2022/09/06 09:45:29;;;;;;;3.30;2.60;;;;;;;29.58;34.64;97923.31;110042;1247;59716;-70
2022/09/06 09:48:26;;;;;;;3.70;2.70;;;;;;;29.70;34.30;97920.11;110271;1247;59695;-74
2022/09/06 09:50:55;;;;;;;2.70;2.00;;;;;;;28.66;32.94;97909.17;110152;1247;71566;-73
2022/09/06 09:53:25;;;;;;;3.90;2.50;;;;;;;28.10;34.93;97912.55;110165;1247;69394;-73
2022/09/06 09:55:56;;;;;;;3.00;2.30;;;;;;;27.46;36.09;97909.75;110152;1247;69585;-73
2022/09/06 09:58:34;;;;;;;2.10;1.80;;;;;;;26.75;37.10;97906.66;110154;1247;59691;-73
2022/09/06 10:01:17;;;;;;;3.70;2.10;;;;;;;26.59;36.68;97906.88;110096;1247;59699;-71
2022/09/06 10:03:46;;;;;;;2.50;2.10;;;;;;;26.52;34.58;97899.33;110142;1247;71353;-72
2022/09/06 10:06:36;;;;;;;1.90;1.70;;;;;;;27.09;32.89;97899.83;110145;1247;68627;-72
2022/09/06 10:09:35;;;;;;;2.20;1.60;;;;;;;28.27;31.86;97892.95;110210;1247;67467;-73
2022/09/06 10:12:05;;;;;;;1.70;1.50;;;;;;;29.16;31.41;97899.33;110136;1247;59687;-70
2022/09/06 10:14:46;;;;;;;2.40;1.60;;;;;;;29.84;30.38;97893.01;110160;1247;59658;-74
2022/09/06 10:17:36;;;;;;;1.70;1.50;;;;;;;30.07;30.07;97887.61;110231;1247;71631;-75
2022/09/06 10:20:08;;;;;;;2.20;1.80;;;;;;;30.99;26.74;97889.45;110176;1246;68752;-75
2022/09/06 10:22:37;;;;;;;2.20;1.80;;;;;;;31.77;26.83;97890.58;110186;1247;69588;-71
2022/09/06 10:25:17;;;;;;;;;;;;;;;31.50;24.47;97888.56;110115;1247;59687;-73
2022/09/06 10:28:30;;;;;;;4.00;2.10;;;;;;;31.62;25.12;97886.74;110177;1247;59672;-75
2022/09/06 10:31:25;;;;;;;3.60;1.90;;;;;;;31.71;25.69;97888.48;110246;1247;70825;-73
2022/09/06 10:34:09;;;;;;;2.70;2.00;;;;;;;31.83;26.62;97890.09;109873;1247;69363;-71
2022/09/06 10:36:44;;;;;;;2.00;1.60;;;;;;;31.66;27.28;97894.10;110409;1247;69713;-73
2022/09/06 10:39:42;;;;;;;2.60;2.30;;;;;;;31.75;28.19;97887.98;110442;1247;59681;-74
2022/09/06 10:42:14;;;;;;;;;;;;;;;30.32;28.74;97890.40;109870;1247;59720;-74
2022/09/06 10:45:07;;;;;;;2.50;2.30;;;;;;;30.07;30.19;97888.71;110021;1247;71627;-75
2022/09/06 10:47:54;;;;;;;2.40;2.20;;;;;;;29.79;30.45;97888.70;110252;1247;67606;-73
2022/09/06 10:50:51;;;;;;;2.20;1.90;;;;;;;29.36;31.18;97887.87;110161;1246;69538;-74
2022/09/06 10:53:21;;;;;;;3.50;2.10;;;;;;;28.94;31.47;97888.71;110101;1247;59719;-75
2022/09/06 10:56:05;;;;;;;1.90;1.50;;;;;;;28.79;32.59;97883.57;110148;1247;59695;-74
2022/09/06 10:58:43;;;;;;;3.60;2.40;;;;;;;28.44;32.56;97880.39;110183;1247;69775;-74
2022/09/06 11:02:02;;;;;;;;;;;;;;;27.52;32.38;97880.17;110130;1247;68588;-74
2022/09/06 11:04:37;;;;;;;3.20;2.70;;;;;;;27.01;34.31;97879.09;109966;1247;68639;-73
2022/09/06 11:07:39;;;;;;;3.70;2.90;;;;;;;26.70;36.46;97880.64;110110;1247;59681;-71
2022/09/06 11:10:26;;;;;;;3.40;2.30;;;;;;;26.44;36.00;97875.55;110113;1247;59739;-72
2022/09/06 11:13:06;;;;;;;3.70;2.60;;;;;;;26.04;37.62;97876.36;110140;1247;71635;-72
2022/09/06 11:16:04;;;;;;;3.50;2.80;;;;;;;25.62;37.42;97874.55;110089;1247;69487;-70
2022/09/06 11:19:05;;;;;;;3.30;3.00;;;;;;;25.32;37.76;97879.05;110097;1247;68658;-71
2022/09/06 11:21:34;;;;;;;3.90;2.70;;;;;;;24.90;39.65;97882.73;110045;1247;59747;-72
2022/09/06 11:24:15;;;;;;;2.40;2.20;;;;;;;24.89;40.50;97883.38;110222;1247;59685;-73
2022/09/06 11:27:10;;;;;;;2.70;2.40;;;;;;;25.75;40.47;97879.89;110210;1247;71565;-72
2022/09/06 11:29:42;;;;;;;3.20;2.20;;;;;;;26.65;37.96;97876.70;110181;1247;68686;-74
2022/09/06 11:32:39;;;;;;;2.50;2.10;;;;;;;27.52;36.46;97872.06;110124;1247;69419;-74
2022/09/06 11:35:21;;;;;;;3.30;2.60;;;;;;;28.51;34.05;97867.36;110150;1247;59706;-72
2022/09/06 11:38:16;;;;;;;2.30;2.00;;;;;;;29.02;33.04;97871.90;110188;1247;59681;-74
2022/09/06 11:41:03;;;;;;;3.00;2.00;;;;;;;29.21;31.70;97867.29;110226;1247;71598;-72
2022/09/06 11:43:51;;;;;;;3.10;1.80;;;;;;;29.25;31.95;97865.27;110126;1247;69459;-74
2022/09/06 11:46:32;;;;;;;2.60;2.00;;;;;;;29.20;31.77;97859.14;110143;1247;68687;-74
2022/09/06 11:49:09;;;;;;;2.80;2.00;;;;;;;29.06;32.78;97860.58;110155;1247;60152;-73
2022/09/06 11:51:42;;;;;;;2.10;1.80;;;;;;;28.62;32.79;97856.20;110152;1247;59803;-72
2022/09/06 11:54:14;;;;;;;3.40;2.20;;;;;;;28.75;32.65;97859.55;110191;1247;71508;-71
2022/09/06 11:56:45;;;;;;;3.10;2.20;;;;;;;29.21;32.06;97852.24;110201;1247;69633;-72
2022/09/06 11:59:17;;;;;;;2.90;2.20;;;;;;;29.26;30.93;97846.73;110218;1247;69157;-71
2022/09/06 12:01:55;;;;;;;2.20;1.90;;;;;;;29.25;31.64;97843.64;110115;1247;59755;-72
2022/09/06 12:04:59;;;;;;;3.10;2.00;;;;;;;29.80;30.50;97837.30;110127;1247;59643;-72
2022/09/06 12:07:31;;;;;;;3.00;2.00;;;;;;;30.20;30.04;97836.63;110215;1247;71551;-73